Time;durP1;ratioP1;P1;durP2;ratioP2;P2;SDS_P1;SDS_P2;PMS_P1;PMS_P2;Temp;Humidity;BMP_temperature;BMP_pressure;BME280_temperature;BME280_humidity;BME280_pressure;Samples;Min_cycle;Max_cycle;Signal;HPM_P1;HPM_P2
2022/02/03 00:01:23;;;;;;;12.17;10.87;;;6.20;99.90;;;;;;5089918;28;20439;-64
2022/02/03 00:03:56;;;;;;;12.37;11.03;;;6.30;99.90;;;;;;5089773;28;20466;-65
2022/02/03 00:06:32;;;;;;;14.27;12.50;;;6.20;99.90;;;;;;5090031;28;20427;-65
2022/02/03 00:09:22;;;;;;;15.70;12.70;;;6.20;99.90;;;;;;5089925;28;20442;-65
2022/02/03 00:23:05;;;;;;;15.17;11.27;;;6.30;99.90;;;;;;5089741;28;20450;-64
2022/02/03 00:25:42;;;;;;;14.50;12.40;;;6.30;99.90;;;;;;5089800;28;20517;-64
2022/02/03 00:28:13;;;;;;;13.30;11.00;;;6.40;99.90;;;;;;5089789;28;20454;-63
2022/02/03 00:31:02;;;;;;;13.77;11.60;;;6.40;99.90;;;;;;5089595;28;20482;-64
2022/02/03 00:33:35;;;;;;;12.63;10.20;;;6.40;99.90;;;;;;5089996;28;20463;-63
2022/02/03 00:36:12;;;;;;;13.70;11.70;;;6.40;99.90;;;;;;5089211;28;20474;-63
2022/02/03 00:48:14;;;;;;;16.20;11.40;;;6.50;99.90;;;;;;5089628;28;20430;-64
2022/02/03 00:49:58;;;;;;;14.50;11.33;;;6.40;99.90;;;;;;5089186;28;20433;-64
2022/02/03 00:52:26;;;;;;;13.50;11.63;;;6.40;99.90;;;;;;5089602;28;20485;-64
2022/02/03 00:54:53;;;;;;;12.50;11.27;;;6.40;99.90;;;;;;5089066;28;20465;-62
2022/02/03 00:57:30;;;;;;;13.40;11.57;;;6.50;99.90;;;;;;5089387;28;20492;-63
2022/02/03 01:00:02;;;;;;;13.73;11.60;;;6.50;99.90;;;;;;5088813;28;20988;-64
2022/02/03 01:02:32;;;;;;;13.07;11.40;;;6.50;99.90;;;;;;5089499;28;20776;-64
2022/02/03 01:05:03;;;;;;;13.10;11.30;;;6.50;99.90;;;;;;5089011;28;20850;-63
2022/02/03 01:07:35;;;;;;;11.97;10.70;;;6.50;99.90;;;;;;5088988;28;20439;-63
2022/02/03 01:10:08;;;;;;;12.40;11.07;;;6.60;99.90;;;;;;5088854;28;20442;-63
2022/02/03 01:12:47;;;;;;;13.17;10.87;;;6.50;99.90;;;;;;5088760;28;20511;-64
2022/02/03 01:15:22;;;;;;;12.30;11.00;;;6.50;99.90;;;;;;5089000;28;20482;-62
2022/02/03 01:18:02;;;;;;;14.20;11.50;;;6.40;99.90;;;;;;5089200;28;20446;-62
2022/02/03 01:21:10;;;;;;;11.90;10.70;;;6.50;99.90;;;;;;5089753;28;20446;-62
2022/02/03 01:34:52;;;;;;;13.43;11.77;;;6.60;99.90;;;;;;5092552;28;20441;-63
2022/02/03 01:45:55;;;;;;;12.33;10.97;;;6.60;99.90;;;;;;5086930;28;20563;-62
2022/02/03 01:48:38;;;;;;;13.70;12.20;;;6.70;99.90;;;;;;5087602;28;20518;-65
2022/02/03 01:53:51;;;;;;;14.93;11.90;;;6.70;99.90;;;;;;5087101;28;20584;-63
2022/02/03 01:56:20;;;;;;;13.60;11.40;;;6.70;99.90;;;;;;5087373;28;20805;-63
2022/02/03 01:58:52;;;;;;;13.67;11.67;;;6.70;99.90;;;;;;5087375;28;20541;-61
2022/02/03 02:01:25;;;;;;;15.90;12.70;;;6.70;99.90;;;;;;5086779;28;20436;-63
2022/02/03 02:04:02;;;;;;;15.17;12.03;;;6.70;99.90;;;;;;5087111;28;20896;-63
2022/02/03 02:07:07;;;;;;;17.50;12.73;;;6.70;99.90;;;;;;5087302;28;21138;-62
2022/02/03 02:09:51;;;;;;;13.93;12.47;;;6.60;99.90;;;;;;5054580;28;20505;-62
2022/02/03 02:12:39;;;;;;;20.30;15.43;;;6.60;99.90;;;;;;5086704;28;20943;-63
2022/02/03 02:15:36;;;;;;;14.83;13.10;;;6.60;99.90;;;;;;5086453;28;20439;-63
2022/02/03 02:37:54;;;;;;;20.60;16.37;;;6.60;99.90;;;;;;5086116;28;20457;-63
2022/02/03 02:43:23;;;;;;;21.03;17.20;;;6.80;99.90;;;;;;5080394;28;20443;-63
2022/02/03 02:46:01;;;;;;;20.60;16.30;;;6.80;99.90;;;;;;5086042;28;20502;-63
2022/02/03 02:49:09;;;;;;;20.30;17.63;;;6.90;99.90;;;;;;5086042;28;20463;-63
2022/02/03 02:51:44;;;;;;;20.23;17.50;;;6.90;99.90;;;;;;5072445;28;20486;-63
2022/02/03 02:54:37;;;;;;;21.77;17.93;;;7.00;99.90;;;;;;5085940;28;20451;-63
2022/02/03 02:57:31;;;;;;;21.57;18.30;;;7.00;99.90;;;;;;5073364;28;20497;-63
2022/02/03 03:30:51;;;;;;;19.30;15.73;;;7.20;99.90;;;;;;5071629;28;20423;-62
2022/02/03 03:33:27;;;;;;;16.90;13.90;;;7.20;99.90;;;;;;5071618;28;20459;-63
2022/02/03 03:35:58;;;;;;;19.60;17.33;;;7.20;99.90;;;;;;5071920;28;20432;-63
2022/02/03 03:38:27;;;;;;;17.37;14.40;;;7.20;99.90;;;;;;5071557;28;20879;-63
2022/02/03 03:40:56;;;;;;;18.67;15.50;;;7.20;99.90;;;;;;5071275;28;20458;-62
2022/02/03 03:43:30;;;;;;;17.03;13.80;;;7.20;99.90;;;;;;5071330;28;20451;-62
2022/02/03 03:46:00;;;;;;;16.00;14.30;;;7.20;99.90;;;;;;5071165;28;20482;-64
2022/02/03 03:48:39;;;;;;;17.03;15.00;;;7.20;99.90;;;;;;5071597;28;20803;-64
2022/02/03 03:51:11;;;;;;;17.47;14.43;;;7.20;99.90;;;;;;5070841;28;20928;-64
2022/02/03 03:53:47;;;;;;;16.90;14.17;;;7.20;99.90;;;;;;5071007;28;20451;-62
2022/02/03 03:56:25;;;;;;;18.23;14.40;;;7.20;99.90;;;;;;5070807;28;20485;-63
2022/02/03 03:59:28;;;;;;;18.63;14.17;;;7.20;99.90;;;;;;5070837;28;20845;-63
2022/02/03 04:42:52;;;;;;;14.97;13.20;;;7.10;99.90;;;;;;5067535;28;20443;-63
2022/02/03 04:46:01;;;;;;;15.67;12.10;;;7.10;99.90;;;;;;5070252;28;20489;-62
2022/02/03 04:52:27;;;;;;;14.33;12.57;;;7.10;99.90;;;;;;5069764;28;20419;-63
2022/02/03 04:55:15;;;;;;;14.03;12.00;;;7.00;99.90;;;;;;5069391;28;20451;-63
2022/02/03 05:01:14;;;;;;;15.30;12.60;;;7.10;99.90;;;;;;5058348;28;21078;-62
2022/02/03 05:04:24;;;;;;;16.63;12.87;;;7.10;99.90;;;;;;5069625;28;20455;-63
2022/02/03 05:07:18;;;;;;;14.70;12.03;;;7.10;99.90;;;;;;5069235;28;20913;-62
2022/02/03 05:10:09;;;;;;;14.80;12.10;;;7.20;99.90;;;;;;5069422;28;20865;-63
2022/02/03 05:13:04;;;;;;;12.20;10.90;;;7.10;99.90;;;;;;5069363;28;21192;-63
2022/02/03 05:15:57;;;;;;;15.10;12.23;;;7.10;99.90;;;;;;5069309;28;20497;-63
2022/02/03 05:25:14;;;;;;;16.57;13.13;;;6.90;99.90;;;;;;5062637;28;20988;-62
2022/02/03 05:43:16;;;;;;;15.33;12.10;;;6.60;99.90;;;;;;5069053;28;20423;-63
2022/02/03 05:48:57;;;;;;;14.20;11.97;;;6.50;99.90;;;;;;5052976;28;20432;-65
2022/02/03 05:54:48;;;;;;;13.43;11.00;;;6.40;99.90;;;;;;5038818;28;20459;-64
2022/02/03 06:03:16;;;;;;;13.83;11.00;;;6.30;99.90;;;;;;5072554;28;20450;-63
2022/02/03 06:05:57;;;;;;;13.40;10.50;;;6.40;99.90;;;;;;5075757;28;20467;-64
2022/02/03 06:08:32;;;;;;;13.13;9.50;;;6.40;99.90;;;;;;5075878;28;20447;-65
2022/02/03 06:13:49;;;;;;;12.67;10.37;;;6.40;99.90;;;;;;5074175;28;20952;-63
2022/02/03 06:16:39;;;;;;;12.60;10.00;;;6.50;99.90;;;;;;5068790;28;20490;-64
2022/02/03 06:21:53;;;;;;;11.03;9.30;;;6.50;99.90;;;;;;5060380;28;20478;-64
2022/02/03 06:24:32;;;;;;;12.03;10.50;;;6.50;99.90;;;;;;5073154;28;20563;-65
2022/02/03 06:29:50;;;;;;;12.47;9.73;;;6.50;99.90;;;;;;5075197;28;20941;-64
2022/02/03 06:32:18;;;;;;;10.80;8.80;;;6.40;99.90;;;;;;5077709;28;20786;-64
2022/02/03 06:34:45;;;;;;;11.73;10.47;;;6.40;99.90;;;;;;5075594;28;20467;-62
2022/02/03 06:37:12;;;;;;;14.43;11.07;;;6.40;99.90;;;;;;5076216;28;20447;-63
2022/02/03 06:39:39;;;;;;;14.43;10.30;;;6.40;99.90;;;;;;5076119;28;20451;-63
2022/02/03 06:42:08;;;;;;;13.77;11.20;;;6.40;99.90;;;;;;5076513;28;20457;-63
2022/02/03 06:44:39;;;;;;;13.07;10.80;;;6.50;99.90;;;;;;5077729;28;20488;-63
2022/02/03 06:47:13;;;;;;;12.53;10.50;;;6.50;99.90;;;;;;5077613;28;20457;-63
2022/02/03 06:49:51;;;;;;;12.20;10.53;;;6.60;99.90;;;;;;5077537;28;20455;-63
2022/02/03 06:52:23;;;;;;;13.13;10.30;;;6.70;99.90;;;;;;5080011;28;20451;-63
2022/02/03 06:55:05;;;;;;;12.70;10.40;;;6.80;99.90;;;;;;5079032;28;20550;-63
2022/02/03 06:57:37;;;;;;;13.07;10.00;;;6.80;99.90;;;;;;5079170;28;20436;-63
2022/02/03 07:00:09;;;;;;;13.00;11.37;;;6.90;99.90;;;;;;5077873;28;20521;-63
2022/02/03 07:02:41;;;;;;;15.87;12.90;;;6.90;99.90;;;;;;5078109;28;20526;-63
2022/02/03 07:05:09;;;;;;;17.07;13.43;;;6.90;99.90;;;;;;5077991;28;20482;-63
2022/02/03 07:07:40;;;;;;;14.80;12.03;;;6.90;99.90;;;;;;5078300;28;20450;-63
2022/02/03 07:10:07;;;;;;;13.90;12.40;;;7.00;99.90;;;;;;5077530;28;20490;-63
2022/02/03 07:12:34;;;;;;;13.60;12.13;;;7.00;99.90;;;;;;5078280;28;20529;-63
2022/02/03 07:15:03;;;;;;;11.07;9.83;;;7.00;99.90;;;;;;5078293;28;20883;-63
2022/02/03 07:17:30;;;;;;;11.73;10.13;;;7.00;99.90;;;;;;5077868;28;20475;-63
2022/02/03 07:20:01;;;;;;;11.90;10.30;;;7.10;99.90;;;;;;5077493;28;20475;-63
2022/02/03 07:22:29;;;;;;;12.70;11.40;;;7.10;99.90;;;;;;5077582;28;20871;-63
2022/02/03 07:24:56;;;;;;;12.23;10.40;;;7.20;99.90;;;;;;5077188;28;20486;-64
2022/02/03 07:27:24;;;;;;;11.07;9.73;;;7.20;99.90;;;;;;5077467;28;20472;-63
2022/02/03 07:29:51;;;;;;;13.27;11.70;;;7.30;99.90;;;;;;5077327;28;20530;-63
2022/02/03 07:32:19;;;;;;;18.67;13.57;;;7.30;99.90;;;;;;5076562;28;20449;-63
2022/02/03 07:34:46;;;;;;;16.50;14.53;;;7.30;99.90;;;;;;5073229;28;20897;-63
2022/02/03 07:37:12;;;;;;;16.50;13.60;;;7.40;99.90;;;;;;5071885;28;20455;-63
2022/02/03 07:39:41;;;;;;;15.00;12.30;;;7.40;99.90;;;;;;5071676;28;20941;-63
2022/02/03 07:42:09;;;;;;;11.47;9.50;;;7.40;99.90;;;;;;5071874;28;20534;-64
2022/02/03 07:44:35;;;;;;;11.30;9.60;;;7.50;99.90;;;;;;5071948;28;20478;-64
2022/02/03 07:47:04;;;;;;;11.20;9.03;;;7.50;99.90;;;;;;5072677;28;20482;-66
2022/02/03 07:49:32;;;;;;;12.37;8.90;;;7.60;99.90;;;;;;5078047;28;20523;-63
2022/02/03 07:51:58;;;;;;;10.17;8.73;;;7.60;99.90;;;;;;5077175;28;20953;-67
2022/02/03 07:54:25;;;;;;;11.90;10.13;;;7.70;99.90;;;;;;5077714;28;20475;-64
2022/02/03 07:56:53;;;;;;;10.13;9.07;;;7.80;99.90;;;;;;5072278;28;20454;-62
2022/02/03 07:59:20;;;;;;;11.77;9.53;;;7.80;99.90;;;;;;5074663;28;20550;-64
2022/02/03 08:01:47;;;;;;;11.80;9.77;;;7.90;99.90;;;;;;5075118;28;20458;-65
2022/02/03 08:04:15;;;;;;;9.90;8.90;;;7.80;99.90;;;;;;5076256;28;20484;-65
2022/02/03 08:06:45;;;;;;;10.20;9.07;;;7.80;99.90;;;;;;5077597;28;21020;-63
2022/02/03 08:09:20;;;;;;;11.37;8.87;;;7.90;99.90;;;;;;5078480;28;20479;-65
2022/02/03 08:11:49;;;;;;;9.57;8.23;;;8.00;99.90;;;;;;5079918;28;20488;-64
2022/02/03 08:14:21;;;;;;;10.10;8.10;;;8.00;99.90;;;;;;5078880;28;20471;-64
2022/02/03 08:16:52;;;;;;;9.40;7.50;;;8.10;99.90;;;;;;5078947;28;20444;-64
2022/02/03 08:19:24;;;;;;;10.70;9.00;;;8.20;99.90;;;;;;5079800;28;20513;-64
2022/02/03 08:21:59;;;;;;;9.70;7.90;;;8.20;99.90;;;;;;5079966;28;20929;-64
2022/02/03 08:24:29;;;;;;;9.43;7.93;;;8.40;99.90;;;;;;5080813;28;20666;-64
2022/02/03 08:32:26;;;;;;;8.23;7.37;;;8.70;99.90;;;;;;5077440;28;20424;-65
2022/02/03 08:35:10;;;;;;;9.43;8.53;;;8.90;99.90;;;;;;5081340;28;20468;-64
2022/02/03 08:37:46;;;;;;;13.63;12.23;;;9.00;99.90;;;;;;5081687;28;20446;-66
2022/02/03 08:40:24;;;;;;;16.03;11.50;;;9.10;99.90;;;;;;5078881;28;20451;-64
2022/02/03 08:42:51;;;;;;;12.90;11.20;;;9.00;99.90;;;;;;5079681;28;20451;-64
2022/02/03 08:45:19;;;;;;;11.40;10.27;;;9.00;99.90;;;;;;5078581;28;20471;-64
2022/02/03 08:47:46;;;;;;;13.03;9.90;;;9.10;99.90;;;;;;5079296;28;20451;-64
2022/02/03 08:50:14;;;;;;;12.47;9.00;;;9.10;99.90;;;;;;5079230;28;20475;-65
2022/02/03 08:52:51;;;;;;;9.47;8.47;;;9.10;99.90;;;;;;5079703;28;20810;-65
2022/02/03 08:55:30;;;;;;;10.60;8.30;;;9.20;99.90;;;;;;5079196;28;20450;-64
2022/02/03 08:58:25;;;;;;;8.70;7.80;;;9.30;99.90;;;;;;5079360;28;20479;-65
2022/02/03 09:39:24;;;;;;;7.77;6.00;;;11.10;99.90;;;;;;5075116;28;21090;-65
2022/02/03 09:51:02;;;;;;;6.03;5.30;;;11.20;99.90;;;;;;5065779;28;20532;-64
2022/02/03 09:56:35;;;;;;;4.77;3.57;;;11.30;99.90;;;;;;5010819;28;20438;-64
2022/02/03 09:59:09;;;;;;;4.30;3.37;;;11.10;99.90;;;;;;5063221;28;20452;-64
2022/02/03 10:01:43;;;;;;;6.00;4.50;;;11.10;99.90;;;;;;5074435;28;20436;-64
2022/02/03 10:04:15;;;;;;;5.03;4.00;;;11.20;99.90;;;;;;5076641;28;20489;-64
2022/02/03 10:06:53;;;;;;;4.70;3.70;;;11.30;99.90;;;;;;5076556;28;20509;-65
2022/02/03 10:09:38;;;;;;;5.23;4.00;;;11.30;99.90;;;;;;5077231;28;20455;-66
2022/02/03 10:12:06;;;;;;;6.40;4.73;;;11.20;99.90;;;;;;5078423;28;21022;-65
2022/02/03 10:14:35;;;;;;;5.60;4.40;;;11.20;99.90;;;;;;5077380;28;20460;-65
2022/02/03 10:17:04;;;;;;;4.60;3.87;;;11.10;99.90;;;;;;5078498;28;20469;-65
2022/02/03 10:19:35;;;;;;;6.20;4.10;;;11.20;99.90;;;;;;5077004;28;20538;-65
2022/02/03 10:22:11;;;;;;;4.43;4.03;;;11.10;99.90;;;;;;5078455;28;20435;-65
2022/02/03 10:24:39;;;;;;;4.53;3.93;;;11.20;99.90;;;;;;5078685;28;20465;-65
2022/02/03 10:27:21;;;;;;;5.27;4.13;;;11.20;99.90;;;;;;5078264;28;20483;-65
2022/02/03 10:29:48;;;;;;;5.40;3.90;;;11.40;99.90;;;;;;5078108;28;20547;-65
2022/02/03 10:32:15;;;;;;;5.13;3.67;;;11.50;99.90;;;;;;5078115;28;20448;-66
2022/02/03 10:34:43;;;;;;;4.27;3.50;;;11.70;99.90;;;;;;5078133;28;20470;-65
2022/02/03 10:37:21;;;;;;;3.33;2.83;;;12.00;99.90;;;;;;5077771;28;20502;-65
2022/02/03 10:48:27;;;;;;;3.80;2.40;;;11.80;99.90;;;;;;5061471;28;20440;-66
2022/02/03 10:51:17;;;;;;;5.90;2.33;;;11.90;99.90;;;;;;5076063;28;20512;-65
2022/02/03 10:59:59;;;;;;;4.20;1.83;;;12.80;99.90;;;;;;5072733;28;20436;-65
2022/02/03 11:02:40;;;;;;;2.90;1.80;;;12.50;99.90;;;;;;5076403;28;20894;-65
2022/02/03 11:07:58;;;;;;;3.40;2.20;;;12.00;99.90;;;;;;5065503;28;20432;-65
2022/02/03 11:10:32;;;;;;;3.50;2.20;;;11.80;99.90;;;;;;5075895;28;20459;-65
2022/02/03 11:12:59;;;;;;;3.17;2.17;;;11.70;99.90;;;;;;5075903;28;20503;-65
2022/02/03 11:15:28;;;;;;;3.50;2.30;;;11.70;99.90;;;;;;5080351;28;20507;-66
2022/02/03 11:17:57;;;;;;;2.80;2.20;;;11.70;99.90;;;;;;5081693;28;20444;-65
2022/02/03 11:20:26;;;;;;;4.97;2.83;;;11.60;99.90;;;;;;5081917;28;20471;-65
2022/02/03 11:23:02;;;;;;;2.97;2.00;;;11.70;99.90;;;;;;5081776;28;20464;-65
2022/02/03 11:25:43;;;;;;;2.63;1.70;;;11.70;99.90;;;;;;5081436;28;20454;-65
2022/02/03 11:28:31;;;;;;;2.80;1.93;;;11.90;99.90;;;;;;5081435;28;20523;-65
2022/02/03 11:31:27;;;;;;;2.83;2.00;;;12.00;99.90;;;;;;5080358;28;20439;-65
2022/02/03 11:34:28;;;;;;;2.60;2.10;;;12.10;99.90;;;;;;5080396;28;20527;-66
2022/02/03 11:40:24;;;;;;;4.00;2.30;;;12.00;99.90;;;;;;5079832;28;20419;-65
2022/02/03 11:46:18;;;;;;;3.00;2.00;;;12.20;99.90;;;;;;5079623;28;20436;-67
2022/02/03 12:03:24;;;;;;;3.00;2.58;;;12.30;99.90;;;;;;5100412;27;1235584;-65
2022/02/03 12:20:10;;;;;;;3.87;2.70;;;12.40;99.90;;;;;;5111102;28;21284;-65
2022/02/03 12:25:38;;;;;;;3.50;2.40;;;12.50;99.90;;;;;;5114661;28;20428;-66
2022/02/03 12:28:16;;;;;;;3.93;2.40;;;12.50;99.90;;;;;;5119341;28;20448;-66
2022/02/03 12:31:06;;;;;;;4.03;2.00;;;12.60;99.90;;;;;;5117985;28;20433;-66
2022/02/03 12:39:10;;;;;;;4.17;3.03;;;12.60;99.90;;;;;;5117308;28;20425;-65
2022/02/03 12:41:40;;;;;;;3.87;2.17;;;12.60;99.90;;;;;;5117602;28;20477;-64
2022/02/03 12:44:15;;;;;;;4.03;2.60;;;12.70;99.90;;;;;;5115182;28;20479;-64
2022/02/03 12:46:42;;;;;;;2.93;2.30;;;12.80;99.90;;;;;;5114791;28;20449;-65
2022/02/03 12:49:09;;;;;;;2.93;1.77;;;13.00;99.90;;;;;;5120646;28;20448;-64
2022/02/03 12:51:37;;;;;;;2.93;1.63;;;13.00;99.90;;;;;;5122848;28;20441;-65
2022/02/03 12:54:12;;;;;;;3.20;2.13;;;13.10;99.90;;;;;;5121852;28;20461;-65
2022/02/03 12:56:39;;;;;;;3.77;2.40;;;13.40;99.90;;;;;;5126964;28;20457;-65
2022/02/03 12:59:10;;;;;;;4.40;2.50;;;13.50;99.90;;;;;;5121137;28;20437;-65
2022/02/03 13:01:39;;;;;;;4.17;1.80;;;13.30;99.90;;;;;;5123064;28;21329;-65
2022/02/03 13:04:12;;;;;;;5.23;2.43;;;13.30;99.90;;;;;;5120441;28;20506;-65
2022/02/03 13:06:45;;;;;;;3.67;2.00;;;13.40;99.90;;;;;;5130181;28;20449;-64
2022/02/03 13:09:13;;;;;;;3.10;2.07;;;13.30;99.90;;;;;;5122549;28;20446;-64
2022/02/03 13:11:43;;;;;;;2.80;1.70;;;13.10;99.90;;;;;;5114259;28;20452;-65
2022/02/03 13:14:23;;;;;;;4.13;2.37;;;13.10;99.90;;;;;;5101215;28;20470;-64
2022/02/03 13:16:56;;;;;;;5.33;2.57;;;13.10;99.90;;;;;;5116367;28;20987;-65
2022/02/03 13:19:33;;;;;;;3.17;2.00;;;12.90;99.90;;;;;;5116639;28;20876;-65
2022/02/03 13:22:15;;;;;;;3.37;2.00;;;13.00;99.90;;;;;;5115680;28;21016;-66
2022/02/03 13:27:37;;;;;;;6.67;2.83;;;12.80;99.90;;;;;;5090218;28;20426;-65
2022/02/03 13:30:09;;;;;;;4.00;2.20;;;12.80;99.90;;;;;;5095032;28;20487;-65
2022/02/03 13:32:40;;;;;;;3.97;2.87;;;12.80;99.90;;;;;;5095725;28;20438;-66
2022/02/03 13:35:24;;;;;;;4.70;3.17;;;12.70;99.90;;;;;;5095127;28;20935;-65
2022/02/03 13:37:58;;;;;;;4.80;2.37;;;12.80;99.90;;;;;;5094186;28;20450;-66
2022/02/03 13:40:28;;;;;;;3.90;2.53;;;12.70;99.90;;;;;;5097750;28;20450;-63
2022/02/03 13:43:03;;;;;;;6.17;2.70;;;12.70;99.90;;;;;;5102173;28;20569;-64
2022/02/03 13:45:30;;;;;;;3.63;1.83;;;12.60;99.90;;;;;;5093391;28;20489;-65
2022/02/03 13:47:57;;;;;;;3.70;2.07;;;12.60;99.90;;;;;;5096290;28;20822;-65
2022/02/03 13:50:26;;;;;;;3.10;2.27;;;12.50;99.90;;;;;;5093629;28;20776;-65
2022/02/03 13:53:02;;;;;;;3.40;2.23;;;12.50;99.90;;;;;;5093501;28;20466;-65
2022/02/03 14:15:12;;;;;;;3.80;2.23;;;12.30;99.90;;;;;;5085157;28;21267;-65
2022/02/03 14:20:42;;;;;;;2.83;1.80;;;12.30;99.90;;;;;;5090244;28;20425;-65
2022/02/03 14:26:48;;;;;;;2.90;1.60;;;12.30;99.90;;;;;;5096291;28;20484;-65
2022/02/03 14:28:58;;;;;;;3.53;1.90;;;12.20;99.90;;;;;;5091367;28;20516;-64
2022/02/03 14:31:25;;;;;;;2.73;1.80;;;12.30;99.90;;;;;;5092057;28;20458;-64
2022/02/03 14:33:53;;;;;;;3.13;1.70;;;12.30;99.90;;;;;;5092450;28;20742;-64
2022/02/03 14:36:24;;;;;;;2.40;1.70;;;12.30;99.90;;;;;;5092594;28;20449;-66
2022/02/03 14:38:57;;;;;;;3.07;2.00;;;12.30;99.90;;;;;;5091393;28;20517;-64
2022/02/03 14:41:31;;;;;;;5.73;2.23;;;12.20;99.90;;;;;;5091995;28;21134;-65
2022/02/03 14:44:00;;;;;;;2.63;1.73;;;12.20;99.90;;;;;;5092556;28;20504;-64
2022/02/03 14:46:27;;;;;;;2.60;1.90;;;12.20;99.90;;;;;;5092039;28;20450;-63
2022/02/03 14:48:54;;;;;;;3.37;2.40;;;12.20;99.90;;;;;;5092779;28;20454;-63
2022/02/03 14:51:28;;;;;;;4.87;2.10;;;12.10;99.90;;;;;;5095497;28;20454;-63
2022/02/03 14:54:18;;;;;;;3.60;2.00;;;12.00;99.90;;;;;;5093666;28;20477;-63
2022/02/03 14:59:29;;;;;;;2.90;1.70;;;11.80;99.90;;;;;;5110553;28;20452;-63
2022/02/03 15:01:56;;;;;;;3.40;2.00;;;11.60;99.90;;;;;;5103578;28;20918;-64
2022/02/03 15:04:28;;;;;;;2.90;1.67;;;11.40;99.90;;;;;;5095492;28;20857;-65
2022/02/03 15:06:59;;;;;;;3.80;2.47;;;11.30;99.90;;;;;;5109947;28;20486;-64
2022/02/03 15:09:51;;;;;;;3.80;2.10;;;11.20;99.90;;;;;;5103986;28;20446;-63
2022/02/03 15:12:39;;;;;;;3.33;2.20;;;11.10;99.90;;;;;;5101596;28;20437;-65
2022/02/03 15:15:09;;;;;;;3.63;2.30;;;11.00;99.90;;;;;;5111118;28;20480;-64
2022/02/03 15:17:36;;;;;;;3.50;2.47;;;10.90;99.90;;;;;;5110684;28;20518;-65
2022/02/03 15:20:05;;;;;;;3.77;1.83;;;10.80;99.90;;;;;;5109232;28;20446;-65
2022/02/03 15:22:31;;;;;;;3.90;2.17;;;10.70;99.90;;;;;;5108825;28;20538;-65
2022/02/03 15:25:00;;;;;;;2.77;2.00;;;10.60;99.90;;;;;;5108879;28;20667;-66
2022/02/03 15:27:28;;;;;;;2.57;1.73;;;10.60;99.90;;;;;;5108981;28;20449;-65
2022/02/03 15:29:59;;;;;;;3.13;1.60;;;10.60;99.90;;;;;;5109452;28;20455;-66
2022/02/03 15:32:26;;;;;;;2.63;1.60;;;10.50;99.90;;;;;;5111102;28;20445;-66
2022/02/03 15:34:54;;;;;;;2.40;1.57;;;10.50;99.90;;;;;;5110118;28;20493;-66
2022/02/03 15:37:22;;;;;;;3.20;1.73;;;10.40;99.90;;;;;;5111097;28;20514;-66
2022/02/03 15:39:51;;;;;;;3.40;2.00;;;10.40;99.90;;;;;;5110904;28;20532;-66
2022/02/03 15:42:24;;;;;;;2.83;1.97;;;10.30;99.90;;;;;;5111492;28;20561;-66
2022/02/03 15:44:54;;;;;;;2.93;1.60;;;10.30;99.90;;;;;;5105185;28;20467;-65
2022/02/03 15:47:28;;;;;;;4.60;1.80;;;10.20;99.90;;;;;;5103902;28;21006;-65
2022/02/03 15:50:24;;;;;;;3.33;1.90;;;10.10;99.90;;;;;;5093405;28;20951;-65
2022/02/03 16:04:02;;;;;;;7.10;1.90;;;9.80;99.90;;;;;;5102246;28;20476;-65
2022/02/03 16:17:33;;;;;;;3.63;2.60;;;9.50;99.90;;;;;;5082443;28;20462;-65
2022/02/03 16:20:05;;;;;;;5.17;3.00;;;9.40;99.90;;;;;;5103911;28;20475;-65
2022/02/03 16:22:43;;;;;;;6.20;3.10;;;9.30;99.90;;;;;;5092643;28;20489;-65
2022/02/03 16:25:21;;;;;;;5.40;2.50;;;9.20;99.90;;;;;;5096688;28;21156;-65
2022/02/03 16:52:42;;;;;;;4.27;3.67;;;8.90;99.90;;;;;;5088870;28;20433;-65
2022/02/03 16:55:13;;;;;;;4.00;3.00;;;8.80;99.90;;;;;;5107114;28;20903;-65
2022/02/03 16:57:40;;;;;;;5.60;3.37;;;8.80;99.90;;;;;;5087513;28;20450;-65
2022/02/03 17:00:11;;;;;;;4.00;3.10;;;8.90;99.90;;;;;;5087760;28;20442;-65
2022/02/03 17:02:39;;;;;;;4.37;3.40;;;8.80;99.90;;;;;;5088567;28;21002;-65
2022/02/03 17:05:08;;;;;;;5.10;4.13;;;8.80;99.90;;;;;;5107054;28;20536;-66
2022/02/03 17:07:35;;;;;;;7.60;4.00;;;8.60;99.90;;;;;;5096620;28;20444;-66
2022/02/03 17:10:03;;;;;;;4.20;3.03;;;8.50;99.90;;;;;;5087395;28;20446;-65
2022/02/03 17:12:29;;;;;;;4.70;3.40;;;8.60;99.90;;;;;;5088604;28;20437;-66
2022/02/03 17:14:56;;;;;;;8.53;3.80;;;8.60;99.90;;;;;;5088540;28;21030;-65
2022/02/03 17:17:25;;;;;;;4.37;3.70;;;8.60;99.90;;;;;;5088038;28;20445;-65
2022/02/03 17:19:52;;;;;;;4.90;3.90;;;8.50;99.90;;;;;;5088207;28;20654;-68
2022/02/03 17:22:27;;;;;;;6.40;4.33;;;8.50;99.90;;;;;;5105833;28;20440;-67
2022/02/03 17:25:02;;;;;;;6.30;4.20;;;8.40;99.90;;;;;;5107308;28;20457;-65
2022/02/03 17:27:34;;;;;;;5.13;4.03;;;8.40;99.90;;;;;;5100965;28;20511;-67
2022/02/03 17:30:06;;;;;;;5.10;4.60;;;8.30;99.90;;;;;;5086376;28;20454;-65
2022/02/03 18:03:10;;;;;;;10.07;7.70;;;7.80;99.90;;;;;;5095118;28;20872;-64
2022/02/03 18:08:45;;;;;;;8.40;6.40;;;7.80;99.90;;;;;;5086110;28;21070;-63
2022/02/03 18:11:35;;;;;;;7.20;6.50;;;7.80;99.90;;;;;;5093460;28;20447;-63
2022/02/03 18:31:07;;;;;;;8.67;7.50;;;7.50;99.90;;;;;;5075094;28;20528;-63
2022/02/03 18:36:47;;;;;;;8.43;6.93;;;7.40;99.90;;;;;;5062115;28;20502;-62
2022/02/03 18:50:24;;;;;;;10.20;9.07;;;7.20;99.90;;;;;;5045914;28;20478;-63
2022/02/03 18:53:04;;;;;;;9.60;8.60;;;7.10;99.90;;;;;;5078526;28;20454;-62
2022/02/03 18:55:41;;;;;;;9.60;8.60;;;7.10;99.90;;;;;;5079523;28;20505;-62
2022/02/03 18:58:16;;;;;;;9.40;8.37;;;7.00;99.90;;;;;;5080723;28;20450;-63
2022/02/03 20:04:43;;;;;;;31.20;22.93;;;6.50;99.90;;;;;;5056496;28;20449;-63
2022/02/03 20:07:18;;;;;;;16.93;13.77;;;6.40;99.90;;;;;;5063529;28;20478;-64
2022/02/03 20:10:01;;;;;;;12.23;10.97;;;6.40;99.90;;;;;;5062241;28;20479;-65
2022/02/03 20:12:29;;;;;;;21.10;16.20;;;6.40;99.90;;;;;;5064355;28;20478;-64
2022/02/03 20:14:57;;;;;;;17.17;13.40;;;6.40;99.90;;;;;;5062913;28;20502;-63
2022/02/03 20:17:27;;;;;;;15.03;12.90;;;6.40;99.90;;;;;;5062644;28;20464;-63
2022/02/03 20:19:54;;;;;;;13.53;11.40;;;6.40;99.90;;;;;;5062702;28;20462;-64
2022/02/03 20:22:26;;;;;;;16.17;11.23;;;6.50;99.90;;;;;;5059745;28;20550;-63
2022/02/03 20:24:55;;;;;;;20.40;13.47;;;6.50;99.90;;;;;;5061728;28;20463;-63
2022/02/03 20:27:21;;;;;;;9.63;8.63;;;6.60;99.90;;;;;;5062428;28;20451;-63
2022/02/03 20:29:49;;;;;;;34.53;21.10;;;6.60;99.90;;;;;;5059464;28;20483;-62
2022/02/03 20:32:18;;;;;;;18.57;13.50;;;6.60;99.90;;;;;;5060250;28;20455;-62
2022/02/03 20:34:45;;;;;;;113.50;54.20;;;6.60;99.90;;;;;;5061758;28;20462;-62
2022/02/03 20:37:12;;;;;;;25.27;18.20;;;6.60;99.90;;;;;;5062874;28;20450;-62
2022/02/03 20:39:40;;;;;;;53.13;28.50;;;6.60;99.90;;;;;;5061605;28;20444;-63
2022/02/03 20:42:11;;;;;;;52.83;30.47;;;6.60;99.90;;;;;;5062747;28;20451;-63
2022/02/03 20:44:38;;;;;;;47.80;28.73;;;6.60;99.90;;;;;;5060893;28;20481;-63
2022/02/03 20:47:05;;;;;;;136.27;61.93;;;6.50;99.90;;;;;;5063246;28;20482;-63
2022/02/03 20:49:33;;;;;;;76.40;37.10;;;6.50;99.90;;;;;;5065695;28;20475;-63
2022/02/03 20:51:59;;;;;;;42.17;25.67;;;6.50;99.90;;;;;;5053402;28;20505;-63
2022/02/03 20:54:26;;;;;;;40.97;21.70;;;6.40;99.90;;;;;;5047060;28;20481;-62
2022/02/03 20:56:53;;;;;;;17.23;11.27;;;6.40;99.90;;;;;;5062360;28;20458;-62
2022/02/03 20:59:27;;;;;;;15.17;11.53;;;6.50;99.90;;;;;;5063845;28;20443;-63
2022/02/03 21:01:56;;;;;;;22.73;14.93;;;6.50;99.90;;;;;;5058081;28;20440;-62
2022/02/03 21:04:33;;;;;;;40.90;23.40;;;6.50;99.90;;;;;;5050317;28;20472;-63
2022/02/03 21:07:00;;;;;;;96.43;52.90;;;6.60;99.90;;;;;;5049826;28;20504;-63
2022/02/03 21:09:27;;;;;;;93.20;59.37;;;6.50;99.90;;;;;;5040614;28;20484;-63
2022/02/03 21:11:54;;;;;;;39.37;27.03;;;6.50;99.90;;;;;;5057464;28;20447;-63
2022/02/03 21:14:22;;;;;;;48.50;30.83;;;6.50;99.90;;;;;;5059827;28;20474;-63
2022/02/03 21:16:51;;;;;;;54.27;34.33;;;6.40;99.90;;;;;;5061312;28;20985;-63
2022/02/03 21:19:18;;;;;;;36.83;27.37;;;6.30;99.90;;;;;;5063488;28;20439;-63
2022/02/03 21:21:45;;;;;;;23.20;16.43;;;6.20;99.90;;;;;;5063248;28;20452;-63
2022/02/03 21:24:12;;;;;;;27.20;17.13;;;6.20;99.90;;;;;;5063618;28;20541;-63
2022/02/03 21:26:41;;;;;;;26.23;16.90;;;6.20;99.90;;;;;;5063241;28;20443;-63
2022/02/03 21:29:08;;;;;;;12.87;10.77;;;6.30;99.90;;;;;;5061143;28;20533;-63
2022/02/03 21:31:36;;;;;;;19.60;14.20;;;6.30;99.90;;;;;;5060821;28;20483;-63
2022/02/03 21:34:09;;;;;;;35.40;18.80;;;6.30;99.90;;;;;;5064028;28;20479;-63
2022/02/03 21:36:39;;;;;;;36.50;21.93;;;6.30;99.90;;;;;;5062655;28;20827;-63
2022/02/03 21:39:05;;;;;;;40.97;21.37;;;6.30;99.90;;;;;;5063439;28;20944;-63
2022/02/03 21:41:32;;;;;;;32.53;18.80;;;6.40;99.90;;;;;;5060252;28;20950;-63
2022/02/03 21:43:59;;;;;;;22.70;15.73;;;6.40;99.90;;;;;;5063369;28;20490;-63
2022/02/03 21:46:26;;;;;;;13.00;10.70;;;6.50;99.90;;;;;;5061928;28;20807;-63